sensor_id;sensor_type;location;lat;lon;timestamp;P1;durP1;ratioP1;P2;durP2;ratioP2
62024;SDS011;47978;49.118;12.146;2024-03-07T00:02:26;59.35;;;27.60;;
62024;SDS011;47978;49.118;12.146;2024-03-07T00:06:28;62.03;;;27.15;;
62024;SDS011;47978;49.118;12.146;2024-03-07T00:10:30;60.28;;;27.02;;
62024;SDS011;47978;49.118;12.146;2024-03-07T00:14:33;61.35;;;28.00;;
62024;SDS011;47978;49.118;12.146;2024-03-07T00:18:34;57.45;;;26.55;;
62024;SDS011;47978;49.118;12.146;2024-03-07T00:22:36;55.28;;;25.38;;
62024;SDS011;47978;49.118;12.146;2024-03-07T00:26:38;60.10;;;25.90;;
62024;SDS011;47978;49.118;12.146;2024-03-07T00:30:41;60.17;;;28.35;;
62024;SDS011;47978;49.118;12.146;2024-03-07T00:34:42;64.40;;;29.02;;
62024;SDS011;47978;49.118;12.146;2024-03-07T00:38:44;63.97;;;27.38;;
62024;SDS011;47978;49.118;12.146;2024-03-07T00:42:46;63.75;;;26.52;;
62024;SDS011;47978;49.118;12.146;2024-03-07T00:46:49;60.15;;;26.60;;
62024;SDS011;47978;49.118;12.146;2024-03-07T00:50:50;55.03;;;24.23;;
62024;SDS011;47978;49.118;12.146;2024-03-07T00:54:52;56.97;;;26.15;;
62024;SDS011;47978;49.118;12.146;2024-03-07T00:58:54;58.65;;;26.02;;
62024;SDS011;47978;49.118;12.146;2024-03-07T01:02:56;58.40;;;24.50;;
62024;SDS011;47978;49.118;12.146;2024-03-07T01:06:58;61.95;;;25.77;;
62024;SDS011;47978;49.118;12.146;2024-03-07T01:11:00;56.40;;;25.90;;
62024;SDS011;47978;49.118;12.146;2024-03-07T01:15:02;62.42;;;26.45;;
62024;SDS011;47978;49.118;12.146;2024-03-07T01:19:05;49.80;;;24.57;;
62024;SDS011;47978;49.118;12.146;2024-03-07T01:23:08;59.47;;;25.10;;
62024;SDS011;47978;49.118;12.146;2024-03-07T01:27:10;56.90;;;26.25;;
62024;SDS011;47978;49.118;12.146;2024-03-07T01:31:11;54.08;;;25.48;;
62024;SDS011;47978;49.118;12.146;2024-03-07T01:35:14;61.00;;;25.73;;
62024;SDS011;47978;49.118;12.146;2024-03-07T01:39:16;65.93;;;26.35;;
62024;SDS011;47978;49.118;12.146;2024-03-07T01:43:17;59.65;;;24.27;;
62024;SDS011;47978;49.118;12.146;2024-03-07T01:47:19;49.90;;;22.58;;
62024;SDS011;47978;49.118;12.146;2024-03-07T01:51:22;61.45;;;24.60;;
62024;SDS011;47978;49.118;12.146;2024-03-07T01:59:25;56.95;;;25.20;;
62024;SDS011;47978;49.118;12.146;2024-03-07T02:03:27;55.15;;;26.13;;
62024;SDS011;47978;49.118;12.146;2024-03-07T02:07:30;61.10;;;25.90;;
62024;SDS011;47978;49.118;12.146;2024-03-07T02:11:31;59.35;;;25.65;;
62024;SDS011;47978;49.118;12.146;2024-03-07T02:15:33;60.67;;;23.23;;
62024;SDS011;47978;49.118;12.146;2024-03-07T02:19:34;59.08;;;23.15;;
62024;SDS011;47978;49.118;12.146;2024-03-07T02:23:37;56.75;;;24.63;;
62024;SDS011;47978;49.118;12.146;2024-03-07T02:27:39;68.70;;;26.77;;
62024;SDS011;47978;49.118;12.146;2024-03-07T02:31:41;58.08;;;24.45;;
62024;SDS011;47978;49.118;12.146;2024-03-07T02:35:43;63.45;;;25.17;;
62024;SDS011;47978;49.118;12.146;2024-03-07T02:39:46;57.83;;;23.38;;
62024;SDS011;47978;49.118;12.146;2024-03-07T02:47:48;51.03;;;22.98;;
62024;SDS011;47978;49.118;12.146;2024-03-07T02:51:50;56.30;;;23.10;;
62024;SDS011;47978;49.118;12.146;2024-03-07T02:55:53;57.47;;;24.15;;
62024;SDS011;47978;49.118;12.146;2024-03-07T03:03:56;58.47;;;23.52;;
62024;SDS011;47978;49.118;12.146;2024-03-07T03:07:58;54.10;;;22.33;;
62024;SDS011;47978;49.118;12.146;2024-03-07T03:12:01;56.10;;;22.77;;
62024;SDS011;47978;49.118;12.146;2024-03-07T03:20:04;49.10;;;21.50;;
62024;SDS011;47978;49.118;12.146;2024-03-07T03:28:10;49.90;;;22.00;;
62024;SDS011;47978;49.118;12.146;2024-03-07T03:32:12;56.17;;;22.10;;
62024;SDS011;47978;49.118;12.146;2024-03-07T03:36:13;60.38;;;23.50;;
62024;SDS011;47978;49.118;12.146;2024-03-07T03:40:15;56.10;;;22.33;;
62024;SDS011;47978;49.118;12.146;2024-03-07T03:44:18;55.05;;;22.95;;
62024;SDS011;47978;49.118;12.146;2024-03-07T03:52:21;62.42;;;24.65;;
62024;SDS011;47978;49.118;12.146;2024-03-07T03:56:23;56.63;;;24.70;;
62024;SDS011;47978;49.118;12.146;2024-03-07T04:00:26;52.90;;;23.08;;
62024;SDS011;47978;49.118;12.146;2024-03-07T04:08:29;48.47;;;20.58;;
62024;SDS011;47978;49.118;12.146;2024-03-07T04:12:30;50.67;;;21.80;;
62024;SDS011;47978;49.118;12.146;2024-03-07T04:16:33;67.60;;;24.48;;
62024;SDS011;47978;49.118;12.146;2024-03-07T04:24:36;63.70;;;26.17;;
62024;SDS011;47978;49.118;12.146;2024-03-07T04:28:38;53.45;;;24.10;;
62024;SDS011;47978;49.118;12.146;2024-03-07T04:32:41;57.97;;;23.65;;
62024;SDS011;47978;49.118;12.146;2024-03-07T04:36:42;55.28;;;24.48;;
62024;SDS011;47978;49.118;12.146;2024-03-07T04:40:44;58.17;;;23.42;;
62024;SDS011;47978;49.118;12.146;2024-03-07T04:44:45;58.80;;;24.08;;
62024;SDS011;47978;49.118;12.146;2024-03-07T04:48:48;47.92;;;21.35;;
62024;SDS011;47978;49.118;12.146;2024-03-07T04:52:50;55.28;;;22.77;;
62024;SDS011;47978;49.118;12.146;2024-03-07T04:56:52;54.75;;;23.15;;
62024;SDS011;47978;49.118;12.146;2024-03-07T05:00:54;60.92;;;24.65;;
62024;SDS011;47978;49.118;12.146;2024-03-07T05:04:57;55.47;;;22.90;;
62024;SDS011;47978;49.118;12.146;2024-03-07T05:08:59;53.42;;;24.08;;
62024;SDS011;47978;49.118;12.146;2024-03-07T05:13:01;59.20;;;25.27;;
62024;SDS011;47978;49.118;12.146;2024-03-07T05:17:03;60.85;;;24.85;;
62024;SDS011;47978;49.118;12.146;2024-03-07T05:21:06;57.78;;;22.80;;
62024;SDS011;47978;49.118;12.146;2024-03-07T05:25:07;55.50;;;23.08;;
62024;SDS011;47978;49.118;12.146;2024-03-07T05:29:09;52.63;;;23.17;;
62024;SDS011;47978;49.118;12.146;2024-03-07T05:33:11;64.97;;;25.92;;
62024;SDS011;47978;49.118;12.146;2024-03-07T05:37:14;56.90;;;23.08;;
62024;SDS011;47978;49.118;12.146;2024-03-07T05:45:16;51.60;;;20.75;;
62024;SDS011;47978;49.118;12.146;2024-03-07T05:49:18;61.60;;;25.75;;
62024;SDS011;47978;49.118;12.146;2024-03-07T05:53:21;57.97;;;22.52;;
62024;SDS011;47978;49.118;12.146;2024-03-07T06:01:24;51.53;;;21.90;;
62024;SDS011;47978;49.118;12.146;2024-03-07T06:05:25;58.58;;;25.25;;
62024;SDS011;47978;49.118;12.146;2024-03-07T06:09:28;66.53;;;27.35;;
62024;SDS011;47978;49.118;12.146;2024-03-07T06:17:31;57.20;;;21.80;;
62024;SDS011;47978;49.118;12.146;2024-03-07T06:21:33;55.63;;;24.27;;
62024;SDS011;47978;49.118;12.146;2024-03-07T06:29:39;51.00;;;24.05;;
62024;SDS011;47978;49.118;12.146;2024-03-07T06:33:40;54.95;;;25.60;;
62024;SDS011;47978;49.118;12.146;2024-03-07T06:37:42;73.30;;;26.85;;
62024;SDS011;47978;49.118;12.146;2024-03-07T06:41:45;60.40;;;25.65;;
62024;SDS011;47978;49.118;12.146;2024-03-07T06:45:47;64.18;;;28.00;;
62024;SDS011;47978;49.118;12.146;2024-03-07T06:49:48;68.55;;;28.02;;
62024;SDS011;47978;49.118;12.146;2024-03-07T06:53:50;60.58;;;26.55;;
62024;SDS011;47978;49.118;12.146;2024-03-07T06:57:53;70.10;;;28.38;;
62024;SDS011;47978;49.118;12.146;2024-03-07T07:01:55;76.47;;;30.15;;
62024;SDS011;47978;49.118;12.146;2024-03-07T07:05:56;67.50;;;26.63;;
62024;SDS011;47978;49.118;12.146;2024-03-07T07:09:58;63.38;;;26.38;;
62024;SDS011;47978;49.118;12.146;2024-03-07T07:14:01;64.60;;;25.88;;
62024;SDS011;47978;49.118;12.146;2024-03-07T07:18:03;64.30;;;24.38;;
62024;SDS011;47978;49.118;12.146;2024-03-07T07:22:05;65.80;;;26.83;;
62024;SDS011;47978;49.118;12.146;2024-03-07T07:26:06;62.20;;;26.33;;
62024;SDS011;47978;49.118;12.146;2024-03-07T07:30:10;54.13;;;23.45;;
62024;SDS011;47978;49.118;12.146;2024-03-07T07:34:12;62.97;;;24.95;;
62024;SDS011;47978;49.118;12.146;2024-03-07T07:38:14;56.38;;;23.60;;
62024;SDS011;47978;49.118;12.146;2024-03-07T07:42:16;58.22;;;22.17;;
62024;SDS011;47978;49.118;12.146;2024-03-07T07:46:18;51.67;;;20.60;;
62024;SDS011;47978;49.118;12.146;2024-03-07T07:50:22;56.38;;;24.08;;
62024;SDS011;47978;49.118;12.146;2024-03-07T07:54:24;55.40;;;23.85;;
62024;SDS011;47978;49.118;12.146;2024-03-07T07:58:25;52.72;;;21.77;;
62024;SDS011;47978;49.118;12.146;2024-03-07T08:02:28;53.85;;;21.02;;
62024;SDS011;47978;49.118;12.146;2024-03-07T08:06:30;50.25;;;20.98;;
62024;SDS011;47978;49.118;12.146;2024-03-07T08:10:32;52.80;;;20.00;;
62024;SDS011;47978;49.118;12.146;2024-03-07T08:18:37;53.92;;;20.98;;
62024;SDS011;47978;49.118;12.146;2024-03-07T08:22:39;49.72;;;19.35;;
62024;SDS011;47978;49.118;12.146;2024-03-07T08:26:41;47.47;;;21.83;;
62024;SDS011;47978;49.118;12.146;2024-03-07T08:30:43;48.28;;;20.63;;
62024;SDS011;47978;49.118;12.146;2024-03-07T08:34:46;59.42;;;22.38;;
62024;SDS011;47978;49.118;12.146;2024-03-07T08:38:47;51.42;;;21.27;;
62024;SDS011;47978;49.118;12.146;2024-03-07T08:42:49;53.20;;;23.30;;
62024;SDS011;47978;49.118;12.146;2024-03-07T08:46:51;51.20;;;21.98;;
62024;SDS011;47978;49.118;12.146;2024-03-07T08:50:54;49.90;;;21.83;;
62024;SDS011;47978;49.118;12.146;2024-03-07T08:54:56;52.22;;;22.65;;
62024;SDS011;47978;49.118;12.146;2024-03-07T08:58:57;55.30;;;22.58;;
62024;SDS011;47978;49.118;12.146;2024-03-07T09:02:59;53.05;;;21.45;;
62024;SDS011;47978;49.118;12.146;2024-03-07T09:07:05;46.83;;;19.65;;
62024;SDS011;47978;49.118;12.146;2024-03-07T09:11:07;49.70;;;20.27;;
62024;SDS011;47978;49.118;12.146;2024-03-07T09:15:09;42.90;;;19.27;;
62024;SDS011;47978;49.118;12.146;2024-03-07T09:19:11;47.20;;;18.23;;
62024;SDS011;47978;49.118;12.146;2024-03-07T09:23:14;43.45;;;17.80;;
62024;SDS011;47978;49.118;12.146;2024-03-07T09:31:17;44.83;;;18.08;;
62024;SDS011;47978;49.118;12.146;2024-03-07T09:35:18;44.83;;;17.88;;
62024;SDS011;47978;49.118;12.146;2024-03-07T09:39:21;42.15;;;17.63;;
62024;SDS011;47978;49.118;12.146;2024-03-07T09:43:23;36.55;;;16.90;;
62024;SDS011;47978;49.118;12.146;2024-03-07T09:47:27;35.85;;;15.40;;
62024;SDS011;47978;49.118;12.146;2024-03-07T09:51:30;45.67;;;20.48;;
62024;SDS011;47978;49.118;12.146;2024-03-07T09:55:33;32.63;;;15.52;;
62024;SDS011;47978;49.118;12.146;2024-03-07T09:59:35;32.45;;;14.38;;
62024;SDS011;47978;49.118;12.146;2024-03-07T10:03:37;35.90;;;15.25;;
62024;SDS011;47978;49.118;12.146;2024-03-07T10:07:41;31.70;;;14.48;;
62024;SDS011;47978;49.118;12.146;2024-03-07T10:11:44;30.50;;;14.75;;
62024;SDS011;47978;49.118;12.146;2024-03-07T10:15:48;33.95;;;14.35;;
62024;SDS011;47978;49.118;12.146;2024-03-07T10:19:50;29.95;;;13.95;;
62024;SDS011;47978;49.118;12.146;2024-03-07T10:24:03;32.80;;;15.18;;
62024;SDS011;47978;49.118;12.146;2024-03-07T10:28:07;31.08;;;14.10;;
62024;SDS011;47978;49.118;12.146;2024-03-07T10:32:11;31.38;;;17.13;;
62024;SDS011;47978;49.118;12.146;2024-03-07T10:36:12;25.05;;;13.07;;
62024;SDS011;47978;49.118;12.146;2024-03-07T10:40:16;25.10;;;13.13;;
62024;SDS011;47978;49.118;12.146;2024-03-07T10:44:19;32.58;;;14.38;;
62024;SDS011;47978;49.118;12.146;2024-03-07T10:48:22;28.65;;;13.18;;
62024;SDS011;47978;49.118;12.146;2024-03-07T10:52:33;57.83;;;20.85;;
62024;SDS011;47978;49.118;12.146;2024-03-07T10:56:43;27.33;;;14.15;;
62024;SDS011;47978;49.118;12.146;2024-03-07T11:00:56;32.65;;;14.27;;
62024;SDS011;47978;49.118;12.146;2024-03-07T11:04:59;29.77;;;14.52;;
62024;SDS011;47978;49.118;12.146;2024-03-07T11:09:02;29.15;;;15.05;;
62024;SDS011;47978;49.118;12.146;2024-03-07T11:13:05;34.72;;;15.45;;
62024;SDS011;47978;49.118;12.146;2024-03-07T11:17:10;28.88;;;14.27;;
62024;SDS011;47978;49.118;12.146;2024-03-07T11:25:28;28.92;;;15.32;;
62024;SDS011;47978;49.118;12.146;2024-03-07T11:29:40;36.78;;;14.35;;
62024;SDS011;47978;49.118;12.146;2024-03-07T11:34:00;28.65;;;14.60;;
62024;SDS011;47978;49.118;12.146;2024-03-07T11:38:15;25.98;;;14.00;;
62024;SDS011;47978;49.118;12.146;2024-03-07T11:42:20;33.20;;;14.75;;
62024;SDS011;47978;49.118;12.146;2024-03-07T11:46:24;30.33;;;15.75;;
62024;SDS011;47978;49.118;12.146;2024-03-07T11:50:28;25.10;;;13.30;;
62024;SDS011;47978;49.118;12.146;2024-03-07T11:54:30;28.00;;;13.38;;
62024;SDS011;47978;49.118;12.146;2024-03-07T11:58:31;31.40;;;13.60;;
62024;SDS011;47978;49.118;12.146;2024-03-07T12:02:33;27.55;;;13.43;;
62024;SDS011;47978;49.118;12.146;2024-03-07T12:06:36;28.53;;;13.83;;
62024;SDS011;47978;49.118;12.146;2024-03-07T12:10:39;29.88;;;14.48;;
62024;SDS011;47978;49.118;12.146;2024-03-07T12:14:43;26.50;;;13.48;;
62024;SDS011;47978;49.118;12.146;2024-03-07T12:18:45;24.80;;;13.23;;
62024;SDS011;47978;49.118;12.146;2024-03-07T12:22:48;26.08;;;13.80;;
62024;SDS011;47978;49.118;12.146;2024-03-07T12:26:50;31.40;;;14.90;;
62024;SDS011;47978;49.118;12.146;2024-03-07T12:30:52;27.58;;;13.90;;
62024;SDS011;47978;49.118;12.146;2024-03-07T12:34:55;31.38;;;16.02;;
62024;SDS011;47978;49.118;12.146;2024-03-07T12:38:58;29.08;;;14.73;;
62024;SDS011;47978;49.118;12.146;2024-03-07T12:43:00;30.50;;;15.65;;
62024;SDS011;47978;49.118;12.146;2024-03-07T12:47:01;30.88;;;16.65;;
62024;SDS011;47978;49.118;12.146;2024-03-07T12:51:03;31.40;;;15.02;;
62024;SDS011;47978;49.118;12.146;2024-03-07T12:55:07;26.47;;;14.60;;
62024;SDS011;47978;49.118;12.146;2024-03-07T12:59:09;44.65;;;19.33;;
62024;SDS011;47978;49.118;12.146;2024-03-07T13:03:10;27.58;;;14.73;;
62024;SDS011;47978;49.118;12.146;2024-03-07T13:07:12;29.90;;;15.40;;
62024;SDS011;47978;49.118;12.146;2024-03-07T13:11:15;50.53;;;21.98;;
62024;SDS011;47978;49.118;12.146;2024-03-07T13:15:17;25.10;;;13.65;;
62024;SDS011;47978;49.118;12.146;2024-03-07T13:19:18;33.67;;;16.08;;
62024;SDS011;47978;49.118;12.146;2024-03-07T13:23:20;31.60;;;15.55;;
62024;SDS011;47978;49.118;12.146;2024-03-07T13:27:23;27.75;;;15.75;;
62024;SDS011;47978;49.118;12.146;2024-03-07T13:31:24;27.67;;;14.40;;
62024;SDS011;47978;49.118;12.146;2024-03-07T13:35:26;34.35;;;15.80;;
62024;SDS011;47978;49.118;12.146;2024-03-07T13:39:28;27.75;;;14.82;;
62024;SDS011;47978;49.118;12.146;2024-03-07T13:43:31;29.15;;;15.10;;
62024;SDS011;47978;49.118;12.146;2024-03-07T13:47:33;30.10;;;15.70;;
62024;SDS011;47978;49.118;12.146;2024-03-07T13:51:34;28.20;;;14.18;;
62024;SDS011;47978;49.118;12.146;2024-03-07T14:00:09;32.15;;;16.08;;
62024;SDS011;47978;49.118;12.146;2024-03-07T14:04:36;28.63;;;13.57;;
62024;SDS011;47978;49.118;12.146;2024-03-07T14:13:28;39.92;;;17.77;;
62024;SDS011;47978;49.118;12.146;2024-03-07T14:22:17;34.13;;;16.30;;
62024;SDS011;47978;49.118;12.146;2024-03-07T14:26:37;29.63;;;14.25;;
62024;SDS011;47978;49.118;12.146;2024-03-07T14:30:51;36.83;;;18.02;;
62024;SDS011;47978;49.118;12.146;2024-03-07T14:35:00;32.75;;;15.88;;
62024;SDS011;47978;49.118;12.146;2024-03-07T14:39:06;39.83;;;19.90;;
62024;SDS011;47978;49.118;12.146;2024-03-07T14:43:08;31.30;;;15.13;;
62024;SDS011;47978;49.118;12.146;2024-03-07T14:47:10;32.15;;;15.70;;
62024;SDS011;47978;49.118;12.146;2024-03-07T14:51:13;34.00;;;16.70;;
62024;SDS011;47978;49.118;12.146;2024-03-07T14:55:16;31.48;;;15.20;;
62024;SDS011;47978;49.118;12.146;2024-03-07T14:59:18;32.22;;;14.88;;
62024;SDS011;47978;49.118;12.146;2024-03-07T15:03:20;28.58;;;13.60;;
62024;SDS011;47978;49.118;12.146;2024-03-07T15:07:23;30.55;;;15.20;;
62024;SDS011;47978;49.118;12.146;2024-03-07T15:11:25;34.50;;;15.95;;
62024;SDS011;47978;49.118;12.146;2024-03-07T15:15:31;31.98;;;15.00;;
62024;SDS011;47978;49.118;12.146;2024-03-07T15:19:32;34.20;;;16.60;;
62024;SDS011;47978;49.118;12.146;2024-03-07T15:23:35;31.90;;;14.93;;
62024;SDS011;47978;49.118;12.146;2024-03-07T15:27:38;36.35;;;16.08;;
62024;SDS011;47978;49.118;12.146;2024-03-07T15:31:40;33.03;;;15.32;;
62024;SDS011;47978;49.118;12.146;2024-03-07T15:35:42;35.15;;;16.42;;
62024;SDS011;47978;49.118;12.146;2024-03-07T15:39:45;29.25;;;14.60;;
62024;SDS011;47978;49.118;12.146;2024-03-07T15:43:46;37.20;;;17.77;;
62024;SDS011;47978;49.118;12.146;2024-03-07T15:47:48;30.17;;;13.48;;
62024;SDS011;47978;49.118;12.146;2024-03-07T15:51:51;33.53;;;15.35;;
62024;SDS011;47978;49.118;12.146;2024-03-07T15:55:54;31.87;;;14.67;;
62024;SDS011;47978;49.118;12.146;2024-03-07T16:03:57;29.27;;;15.30;;
62024;SDS011;47978;49.118;12.146;2024-03-07T16:07:59;33.03;;;14.82;;
62024;SDS011;47978;49.118;12.146;2024-03-07T16:12:04;27.38;;;14.50;;
62024;SDS011;47978;49.118;12.146;2024-03-07T16:16:06;33.60;;;15.80;;
62024;SDS011;47978;49.118;12.146;2024-03-07T16:20:08;32.63;;;15.43;;
62024;SDS011;47978;49.118;12.146;2024-03-07T16:24:11;33.03;;;14.95;;
62024;SDS011;47978;49.118;12.146;2024-03-07T16:28:14;33.80;;;14.98;;
62024;SDS011;47978;49.118;12.146;2024-03-07T16:32:15;29.25;;;14.40;;
62024;SDS011;47978;49.118;12.146;2024-03-07T16:36:17;29.95;;;14.32;;
62024;SDS011;47978;49.118;12.146;2024-03-07T16:40:19;32.53;;;16.27;;
62024;SDS011;47978;49.118;12.146;2024-03-07T16:44:22;36.05;;;16.83;;
62024;SDS011;47978;49.118;12.146;2024-03-07T16:52:26;27.77;;;13.27;;
62024;SDS011;47978;49.118;12.146;2024-03-07T16:56:27;27.67;;;13.38;;
62024;SDS011;47978;49.118;12.146;2024-03-07T17:00:30;28.67;;;14.32;;
62024;SDS011;47978;49.118;12.146;2024-03-07T17:04:32;27.73;;;14.00;;
62024;SDS011;47978;49.118;12.146;2024-03-07T17:08:33;29.73;;;14.00;;
62024;SDS011;47978;49.118;12.146;2024-03-07T17:12:35;28.90;;;14.35;;
62024;SDS011;47978;49.118;12.146;2024-03-07T17:16:38;29.30;;;14.98;;
62024;SDS011;47978;49.118;12.146;2024-03-07T17:20:39;27.90;;;14.95;;
62024;SDS011;47978;49.118;12.146;2024-03-07T17:24:42;31.00;;;14.43;;
62024;SDS011;47978;49.118;12.146;2024-03-07T17:28:43;27.40;;;14.15;;
62024;SDS011;47978;49.118;12.146;2024-03-07T17:32:46;31.48;;;15.38;;
62024;SDS011;47978;49.118;12.146;2024-03-07T17:36:50;31.30;;;16.25;;
62024;SDS011;47978;49.118;12.146;2024-03-07T17:40:51;30.27;;;15.88;;
62024;SDS011;47978;49.118;12.146;2024-03-07T17:44:53;31.92;;;16.77;;
62024;SDS011;47978;49.118;12.146;2024-03-07T17:48:56;29.55;;;13.90;;
62024;SDS011;47978;49.118;12.146;2024-03-07T17:56:59;30.98;;;14.88;;
62024;SDS011;47978;49.118;12.146;2024-03-07T18:01:01;28.73;;;13.45;;
62024;SDS011;47978;49.118;12.146;2024-03-07T18:05:05;35.97;;;16.73;;
62024;SDS011;47978;49.118;12.146;2024-03-07T18:09:07;38.95;;;18.70;;
62024;SDS011;47978;49.118;12.146;2024-03-07T18:13:08;38.78;;;16.75;;
62024;SDS011;47978;49.118;12.146;2024-03-07T18:17:10;36.72;;;16.50;;
62024;SDS011;47978;49.118;12.146;2024-03-07T18:21:13;28.60;;;13.88;;
62024;SDS011;47978;49.118;12.146;2024-03-07T18:25:15;35.83;;;16.80;;
62024;SDS011;47978;49.118;12.146;2024-03-07T18:29:16;36.65;;;16.85;;
62024;SDS011;47978;49.118;12.146;2024-03-07T18:33:18;32.90;;;16.63;;
62024;SDS011;47978;49.118;12.146;2024-03-07T18:37:22;41.60;;;18.33;;
62024;SDS011;47978;49.118;12.146;2024-03-07T18:41:23;30.58;;;16.75;;
62024;SDS011;47978;49.118;12.146;2024-03-07T18:45:25;41.58;;;16.73;;
62024;SDS011;47978;49.118;12.146;2024-03-07T18:49:27;46.35;;;22.40;;
62024;SDS011;47978;49.118;12.146;2024-03-07T18:53:29;35.85;;;15.63;;
62024;SDS011;47978;49.118;12.146;2024-03-07T19:01:32;44.38;;;18.45;;
62024;SDS011;47978;49.118;12.146;2024-03-07T19:05:35;33.47;;;16.10;;
62024;SDS011;47978;49.118;12.146;2024-03-07T19:13:40;51.73;;;20.50;;
62024;SDS011;47978;49.118;12.146;2024-03-07T19:17:41;38.85;;;18.85;;
62024;SDS011;47978;49.118;12.146;2024-03-07T19:21:43;39.42;;;17.52;;
62024;SDS011;47978;49.118;12.146;2024-03-07T19:25:46;37.83;;;16.65;;
62024;SDS011;47978;49.118;12.146;2024-03-07T19:29:48;31.50;;;16.58;;
62024;SDS011;47978;49.118;12.146;2024-03-07T19:33:50;39.85;;;18.05;;
62024;SDS011;47978;49.118;12.146;2024-03-07T19:37:52;36.92;;;18.33;;
62024;SDS011;47978;49.118;12.146;2024-03-07T19:41:55;35.28;;;16.95;;
62024;SDS011;47978;49.118;12.146;2024-03-07T19:46:09;32.47;;;16.17;;
62024;SDS011;47978;49.118;12.146;2024-03-07T19:54:13;40.35;;;18.77;;
62024;SDS011;47978;49.118;12.146;2024-03-07T19:58:16;47.55;;;22.38;;
62024;SDS011;47978;49.118;12.146;2024-03-07T20:02:21;37.28;;;18.27;;
62024;SDS011;47978;49.118;12.146;2024-03-07T20:06:23;38.50;;;18.85;;
62024;SDS011;47978;49.118;12.146;2024-03-07T20:10:25;38.42;;;18.42;;
62024;SDS011;47978;49.118;12.146;2024-03-07T20:14:28;37.97;;;18.00;;
62024;SDS011;47978;49.118;12.146;2024-03-07T20:22:31;38.70;;;18.90;;
62024;SDS011;47978;49.118;12.146;2024-03-07T20:26:33;36.28;;;15.63;;
62024;SDS011;47978;49.118;12.146;2024-03-07T20:30:35;39.38;;;18.05;;
62024;SDS011;47978;49.118;12.146;2024-03-07T20:34:37;38.10;;;18.05;;
62024;SDS011;47978;49.118;12.146;2024-03-07T20:38:39;43.17;;;20.65;;
62024;SDS011;47978;49.118;12.146;2024-03-07T20:42:40;45.00;;;20.70;;
62024;SDS011;47978;49.118;12.146;2024-03-07T20:46:43;41.78;;;17.73;;
62024;SDS011;47978;49.118;12.146;2024-03-07T20:54:46;38.72;;;17.88;;
62024;SDS011;47978;49.118;12.146;2024-03-07T20:58:48;38.00;;;15.60;;
62024;SDS011;47978;49.118;12.146;2024-03-07T21:02:51;35.95;;;15.52;;
62024;SDS011;47978;49.118;12.146;2024-03-07T21:06:53;37.20;;;15.85;;
62024;SDS011;47978;49.118;12.146;2024-03-07T21:10:55;35.50;;;17.08;;
62024;SDS011;47978;49.118;12.146;2024-03-07T21:14:56;35.58;;;16.33;;
62024;SDS011;47978;49.118;12.146;2024-03-07T21:18:59;40.85;;;16.50;;
62024;SDS011;47978;49.118;12.146;2024-03-07T21:23:01;39.42;;;15.88;;
62024;SDS011;47978;49.118;12.146;2024-03-07T21:27:03;36.70;;;15.93;;
62024;SDS011;47978;49.118;12.146;2024-03-07T21:31:04;38.37;;;18.17;;
62024;SDS011;47978;49.118;12.146;2024-03-07T21:35:08;34.90;;;16.98;;
62024;SDS011;47978;49.118;12.146;2024-03-07T21:39:09;45.38;;;21.95;;
62024;SDS011;47978;49.118;12.146;2024-03-07T21:43:11;54.85;;;26.35;;
62024;SDS011;47978;49.118;12.146;2024-03-07T21:47:12;43.22;;;20.27;;
62024;SDS011;47978;49.118;12.146;2024-03-07T21:51:16;42.30;;;17.50;;
62024;SDS011;47978;49.118;12.146;2024-03-07T21:55:17;34.60;;;16.15;;
62024;SDS011;47978;49.118;12.146;2024-03-07T21:59:19;38.40;;;16.52;;
62024;SDS011;47978;49.118;12.146;2024-03-07T22:03:20;41.92;;;16.25;;
62024;SDS011;47978;49.118;12.146;2024-03-07T22:07:24;33.63;;;16.13;;
62024;SDS011;47978;49.118;12.146;2024-03-07T22:15:27;37.70;;;18.50;;
62024;SDS011;47978;49.118;12.146;2024-03-07T22:19:29;38.45;;;16.95;;
62024;SDS011;47978;49.118;12.146;2024-03-07T22:23:32;42.05;;;16.67;;
62024;SDS011;47978;49.118;12.146;2024-03-07T22:27:33;40.20;;;19.15;;
62024;SDS011;47978;49.118;12.146;2024-03-07T22:31:35;41.83;;;19.33;;
62024;SDS011;47978;49.118;12.146;2024-03-07T22:35:37;36.85;;;16.25;;
62024;SDS011;47978;49.118;12.146;2024-03-07T22:39:40;36.33;;;16.75;;
62024;SDS011;47978;49.118;12.146;2024-03-07T22:43:44;36.78;;;17.67;;
62024;SDS011;47978;49.118;12.146;2024-03-07T22:47:46;40.35;;;17.27;;
62024;SDS011;47978;49.118;12.146;2024-03-07T22:51:48;46.13;;;20.38;;
62024;SDS011;47978;49.118;12.146;2024-03-07T22:55:51;39.55;;;18.35;;
62024;SDS011;47978;49.118;12.146;2024-03-07T23:03:54;41.42;;;18.25;;
62024;SDS011;47978;49.118;12.146;2024-03-07T23:07:55;37.80;;;17.55;;
62024;SDS011;47978;49.118;12.146;2024-03-07T23:11:58;36.90;;;14.98;;
62024;SDS011;47978;49.118;12.146;2024-03-07T23:20:01;39.33;;;18.30;;
62024;SDS011;47978;49.118;12.146;2024-03-07T23:24:03;50.92;;;21.33;;
62024;SDS011;47978;49.118;12.146;2024-03-07T23:28:06;47.30;;;18.00;;
62024;SDS011;47978;49.118;12.146;2024-03-07T23:32:08;43.35;;;19.38;;
62024;SDS011;47978;49.118;12.146;2024-03-07T23:36:09;47.05;;;18.98;;
62024;SDS011;47978;49.118;12.146;2024-03-07T23:40:13;43.25;;;20.83;;
62024;SDS011;47978;49.118;12.146;2024-03-07T23:44:17;44.33;;;20.02;;
62024;SDS011;47978;49.118;12.146;2024-03-07T23:48:18;38.47;;;18.02;;
62024;SDS011;47978;49.118;12.146;2024-03-07T23:56:46;41.63;;;18.95;;
